首页
METAR-TAF:

METAR-TAF

机场 :

上海虹桥国际机场

上海 / 虹桥, 中华人民共和国

纬度: 31-10N, 经度: 121-26E, 海拔: 7米

当前天气观测

该预报发布于36分钟前的07:30 UTC
风速12节,风向西转西北,在西西北之间变化
温度 23°C
湿度 94%
气压 1008 hPa
能見度: 2000
多云层高于700英尺
散云层高于3000英尺, 积雨云.
阴天层高于4000英尺
大阵雨, 轻雾

METAR: ZSSS 220730Z 29006MPS 260V320 2000 +SHRA BR BKN007 SCT030CB OVC040 23/22 Q1008 BECMG TL0750 3000 -SHRA BR BKN010 OVC040

时间: 16:06 (08:06 UTC)

预报

该预报发布于4小时和51分钟前的03:15 UTC
预报有效从22日的 06点(UTC)到 23日的 06点(UTC)
风速10节,风向南转西南
能見度: 6000
多云层高于1500英尺
短暂存在
从 22日的 07点(UTC)到 22日的 13点(UTC)
能見度: 2800
多云层高于500英尺
少量云层高于3000英尺, 积雨云.
阵雨, 轻雾
成为
从 22日的 07点(UTC)到 22日的 08点(UTC)
风速10节,风向西转西北
成为
从 22日的 13点(UTC)到 22日的 14点(UTC)
风速10节,风向

TAF: ZSSS 220315Z 2206/2306 20005MPS 6000 BKN015 TX27/2206Z TN18/2221Z TEMPO 2207/2213 2800 SHRA BR BKN005 FEW030CB BECMG 2207/2208 29005MPS BECMG 2213/2214 36005MPS

超过4000个机场的气象观测和天气预报(METAR&TAF报告)。

可查询的气象台以黄色和红色小点在地图上表示。

将鼠标移到小点上方,可查看气象台名称。

然后点击查看天气观测和预报。

如需切换地图:点击带黑十字的绿色按钮放大地图;点击带横线的绿色按钮缩小地图;或者点击绿色箭头查看邻近地区的地图。


METAR-TAF: